Time;durP1;ratioP1;P1;durP2;ratioP2;P2;SDS_P1;SDS_P2;PMS_P1;PMS_P2;Temp;Humidity;BMP_temperature;BMP_pressure;BME280_temperature;BME280_humidity;BME280_pressure;Samples;Min_cycle;Max_cycle;Signal;HPM_P1;HPM_P2
2023/10/28 00:01:11;;;;;;;10.53;6.70;;;;;;;18.65;78.31;98386.81;5072534;28;20198;-59
2023/10/28 00:03:37;;;;;;;9.90;6.73;;;;;;;18.65;78.44;98396.78;5072262;28;20182;-60
2023/10/28 00:06:05;;;;;;;12.77;6.87;;;;;;;18.55;78.68;98402.19;5072516;28;20281;-60
2023/10/28 00:08:33;;;;;;;10.27;6.13;;;;;;;18.48;78.54;98407.84;5072529;28;20623;-59
2023/10/28 00:11:00;;;;;;;11.73;6.03;;;;;;;18.40;79.50;98410.28;5072687;28;20269;-59
2023/10/28 00:13:27;;;;;;;8.33;6.03;;;;;;;18.39;79.66;98401.44;5072315;28;20198;-60
2023/10/28 00:15:53;;;;;;;10.10;6.20;;;;;;;18.42;79.78;98402.78;5072520;28;20196;-60
2023/10/28 00:18:20;;;;;;;9.20;6.53;;;;;;;18.43;79.82;98402.50;5072143;28;20728;-59
2023/10/28 00:20:47;;;;;;;17.17;6.03;;;;;;;18.38;79.49;98401.69;5072429;28;20287;-60
2023/10/28 00:23:14;;;;;;;11.30;6.03;;;;;;;18.13;80.45;98389.06;5072254;28;20189;-59
2023/10/28 00:25:43;;;;;;;10.37;6.50;;;;;;;18.01;81.21;98388.53;5072259;28;20234;-59
2023/10/28 00:28:10;;;;;;;12.63;6.10;;;;;;;18.01;81.62;98387.75;5072366;28;20232;-60
2023/10/28 00:30:38;;;;;;;8.33;6.23;;;;;;;18.03;81.55;98389.09;5072241;28;20228;-59
2023/10/28 00:33:05;;;;;;;14.57;5.70;;;;;;;17.93;81.79;98388.28;5072328;28;20191;-59
2023/10/28 00:35:32;;;;;;;14.43;6.87;;;;;;;17.89;81.87;98403.34;5071849;28;20218;-59
2023/10/28 00:37:59;;;;;;;10.23;7.00;;;;;;;17.88;82.84;98401.75;5072228;28;20261;-59
2023/10/28 00:40:26;;;;;;;12.03;6.40;;;;;;;17.88;82.67;98396.38;5072186;28;20295;-59
2023/10/28 00:42:54;;;;;;;7.00;6.33;;;;;;;17.84;82.42;98400.66;5071792;28;20192;-59
2023/10/28 00:45:21;;;;;;;11.57;6.63;;;;;;;17.68;83.00;98401.72;5070897;28;20217;-59
2023/10/28 00:47:52;;;;;;;8.00;6.53;;;;;;;17.56;83.76;98407.34;5071791;28;20666;-59
2023/10/28 00:50:19;;;;;;;6.80;6.10;;;;;;;17.50;83.88;98415.66;5072140;28;20271;-59
2023/10/28 00:52:50;;;;;;;7.40;6.70;;;;;;;17.44;84.35;98406.00;5071867;28;20196;-59
2023/10/28 00:55:20;;;;;;;11.30;6.70;;;;;;;17.32;84.24;98410.78;5071794;28;20188;-59
2023/10/28 00:57:48;;;;;;;12.67;7.30;;;;;;;17.22;84.80;98422.28;5071474;28;20197;-60
2023/10/28 01:00:17;;;;;;;14.67;7.20;;;;;;;17.27;85.33;98416.13;5071791;28;20224;-59
2023/10/28 01:02:44;;;;;;;12.63;6.63;;;;;;;17.36;85.20;98403.81;5071497;28;20195;-59
2023/10/28 01:05:13;;;;;;;9.20;6.57;;;;;;;17.44;84.88;98411.38;5071618;28;20196;-59
2023/10/28 01:07:41;;;;;;;9.47;6.73;;;;;;;17.45;84.41;98400.38;5071328;28;20280;-59
2023/10/28 01:10:09;;;;;;;14.13;7.90;;;;;;;17.47;84.26;98394.72;5071189;28;20234;-59
2023/10/28 01:12:37;;;;;;;8.00;7.13;;;;;;;17.45;84.28;98402.22;5071813;28;20301;-59
2023/10/28 01:15:05;;;;;;;9.40;7.00;;;;;;;17.36;84.79;98409.16;5071070;28;20658;-59
2023/10/28 01:17:34;;;;;;;12.43;6.53;;;;;;;17.24;85.01;98403.25;5071372;28;20574;-59
2023/10/28 01:20:00;;;;;;;16.33;6.60;;;;;;;17.27;86.05;98400.81;5071583;28;20201;-60
2023/10/28 01:22:28;;;;;;;10.10;6.40;;;;;;;17.34;85.65;98400.56;5071142;28;20734;-59
2023/10/28 01:24:55;;;;;;;11.83;7.07;;;;;;;17.31;84.98;98401.13;5071571;28;20249;-59
2023/10/28 01:27:22;;;;;;;11.57;7.10;;;;;;;17.35;85.71;98394.16;5070868;28;20236;-59
2023/10/28 01:29:48;;;;;;;17.90;8.03;;;;;;;17.36;85.17;98398.44;5071469;28;20203;-59
2023/10/28 01:32:15;;;;;;;10.17;6.93;;;;;;;17.27;85.49;98397.34;5071396;28;20196;-59
2023/10/28 01:34:48;;;;;;;15.03;7.70;;;;;;;17.24;86.05;98403.25;5071468;28;20223;-59
2023/10/28 01:37:16;;;;;;;13.20;7.17;;;;;;;17.17;86.12;98405.34;5071355;28;20235;-59
2023/10/28 01:39:44;;;;;;;14.20;6.47;;;;;;;17.05;86.46;98418.19;5071412;28;20196;-59
2023/10/28 01:42:13;;;;;;;22.90;7.50;;;;;;;16.97;86.75;98427.56;5071282;28;20195;-59
2023/10/28 01:44:40;;;;;;;8.07;7.27;;;;;;;16.91;87.05;98435.88;5071302;28;20560;-59
2023/10/28 01:47:08;;;;;;;13.00;7.37;;;;;;;16.90;87.02;98445.78;5071261;28;20224;-59
2023/10/28 01:49:35;;;;;;;8.63;7.00;;;;;;;16.96;87.50;98441.25;5071428;28;20230;-60
2023/10/28 01:52:03;;;;;;;11.97;7.30;;;;;;;17.12;87.34;98445.59;5071094;28;20249;-59
2023/10/28 01:54:30;;;;;;;10.97;7.90;;;;;;;17.22;86.46;98451.00;5071037;28;20571;-59
2023/10/28 01:56:58;;;;;;;12.97;7.77;;;;;;;17.29;85.55;98440.81;5075184;28;20200;-59
2023/10/28 01:59:25;;;;;;;10.43;7.27;;;;;;;17.36;86.07;98446.75;5075163;28;20188;-59
2023/10/28 02:01:52;;;;;;;10.83;7.37;;;;;;;17.43;85.25;98445.44;5075134;28;20192;-59
2023/10/28 02:04:19;;;;;;;14.23;7.17;;;;;;;17.48;85.33;98439.28;5075245;28;20195;-59
2023/10/28 02:06:45;;;;;;;13.40;6.80;;;;;;;17.53;85.09;98432.06;5074568;28;20640;-59
2023/10/28 02:09:12;;;;;;;13.37;7.53;;;;;;;17.44;84.99;98433.63;5075098;28;20252;-59
2023/10/28 02:11:40;;;;;;;14.63;8.30;;;;;;;17.35;85.85;98450.53;5074732;28;20195;-59
2023/10/28 02:14:09;;;;;;;10.87;7.27;;;;;;;17.38;85.96;98466.06;5074722;28;20233;-59
2023/10/28 02:16:37;;;;;;;11.27;6.50;;;;;;;17.43;85.86;98455.41;5074600;28;20199;-59
2023/10/28 02:19:03;;;;;;;13.67;6.50;;;;;;;17.45;85.26;98446.00;5074587;28;20655;-59
2023/10/28 02:21:30;;;;;;;9.97;7.43;;;;;;;17.50;85.35;98448.69;5074622;28;20623;-59
2023/10/28 02:23:57;;;;;;;10.30;7.37;;;;;;;17.51;85.11;98452.19;5074565;28;20193;-59
2023/10/28 02:26:24;;;;;;;13.03;7.40;;;;;;;17.31;85.92;98452.91;5074636;28;20300;-59
2023/10/28 02:28:50;;;;;;;8.47;7.03;;;;;;;17.19;86.30;98454.22;5074395;28;20732;-60
2023/10/28 02:31:18;;;;;;;12.90;7.40;;;;;;;17.25;86.75;98466.56;5074551;28;20627;-59
2023/10/28 02:33:45;;;;;;;17.03;7.17;;;;;;;17.21;86.41;98462.81;5074664;28;20192;-59
2023/10/28 02:36:12;;;;;;;11.90;6.87;;;;;;;17.14;86.92;98451.50;5074519;28;20231;-61
2023/10/28 02:38:40;;;;;;;12.97;7.10;;;;;;;17.00;87.50;98453.06;5074175;28;20195;-59
2023/10/28 02:41:07;;;;;;;10.83;6.83;;;;;;;16.98;87.98;98461.38;5074109;28;20246;-59
2023/10/28 02:43:35;;;;;;;11.40;7.47;;;;;;;17.02;87.97;98448.25;5074487;28;20278;-60
2023/10/28 02:46:03;;;;;;;11.13;7.60;;;;;;;17.06;88.22;98447.44;5073890;28;20205;-60
2023/10/28 02:48:31;;;;;;;13.57;8.10;;;;;;;17.10;87.16;98453.09;5074077;28;20236;-59
2023/10/28 02:51:03;;;;;;;14.60;8.57;;;;;;;17.01;87.30;98463.53;5074230;28;20192;-59
2023/10/28 02:53:30;;;;;;;15.33;8.33;;;;;;;16.90;87.25;98467.25;5074326;28;20261;-59
2023/10/28 02:55:57;;;;;;;12.17;6.70;;;;;;;16.92;87.81;98472.34;5073904;28;20667;-58
2023/10/28 02:58:24;;;;;;;8.10;6.80;;;;;;;16.92;87.29;98475.84;5073831;28;20380;-59
2023/10/28 03:00:50;;;;;;;13.37;7.70;;;;;;;16.97;87.90;98469.69;5074035;28;20227;-59
2023/10/28 03:03:17;;;;;;;13.30;7.33;;;;;;;17.06;87.92;98462.75;5073751;28;20261;-60
2023/10/28 03:05:45;;;;;;;13.53;7.30;;;;;;;17.17;87.69;98459.03;5073760;28;20658;-59
2023/10/28 03:08:12;;;;;;;12.67;7.33;;;;;;;17.23;86.92;98463.38;5073054;28;20289;-59
2023/10/28 03:10:39;;;;;;;13.70;7.50;;;;;;;17.21;86.18;98470.84;5073707;28;20278;-59
2023/10/28 03:13:06;;;;;;;15.23;7.77;;;;;;;17.07;86.58;98469.75;5073841;28;20192;-59
2023/10/28 03:15:33;;;;;;;12.43;8.00;;;;;;;17.10;87.60;98463.81;5073487;28;20191;-59
2023/10/28 03:18:00;;;;;;;17.90;8.27;;;;;;;17.15;87.38;98455.81;5073767;28;20242;-59
2023/10/28 03:20:27;;;;;;;12.47;7.47;;;;;;;17.13;86.04;98457.94;5073713;28;20192;-59
2023/10/28 03:22:55;;;;;;;14.00;7.90;;;;;;;17.05;86.68;98456.59;5073533;28;20192;-60
2023/10/28 03:25:22;;;;;;;12.50;8.50;;;;;;;17.09;87.32;98468.41;5073739;28;20283;-59
2023/10/28 03:27:49;;;;;;;11.77;7.60;;;;;;;17.18;86.86;98476.75;5073106;28;20322;-59
2023/10/28 03:30:15;;;;;;;12.70;8.27;;;;;;;17.15;86.28;98471.91;5073118;28;20627;-60
2023/10/28 03:32:42;;;;;;;17.10;8.10;;;;;;;17.15;86.25;98471.91;5073400;28;20285;-59
2023/10/28 03:35:09;;;;;;;13.17;8.47;;;;;;;17.16;85.88;98478.88;5073343;28;20193;-59
2023/10/28 03:37:37;;;;;;;14.13;7.63;;;;;;;17.10;85.90;98469.19;5072872;28;20227;-60
2023/10/28 03:40:07;;;;;;;12.30;7.50;;;;;;;17.12;85.88;98478.63;5073111;28;20798;-59
2023/10/28 03:42:34;;;;;;;16.47;8.20;;;;;;;17.12;85.92;98488.53;5073140;28;20196;-60
2023/10/28 03:45:00;;;;;;;14.87;7.97;;;;;;;17.11;86.42;98498.44;5072837;28;20253;-59
2023/10/28 03:47:29;;;;;;;22.13;9.10;;;;;;;17.14;86.38;98502.47;5072838;28;20288;-59
2023/10/28 03:49:56;;;;;;;17.20;9.73;;;;;;;17.17;86.15;98496.59;5073065;28;20192;-60
2023/10/28 03:52:23;;;;;;;23.60;9.53;;;;;;;17.10;85.94;98494.16;5072999;28;20198;-59
2023/10/28 03:54:50;;;;;;;15.23;8.50;;;;;;;17.07;86.25;98501.94;5072880;28;20194;-59
2023/10/28 03:57:18;;;;;;;16.03;8.93;;;;;;;16.99;86.70;98499.75;5072786;28;20281;-59
2023/10/28 03:59:46;;;;;;;16.67;8.90;;;;;;;17.02;87.61;98504.59;5072880;28;20226;-59
2023/10/28 04:02:13;;;;;;;16.13;9.20;;;;;;;16.89;87.19;98488.94;5072684;28;20245;-59
2023/10/28 04:04:40;;;;;;;12.07;7.90;;;;;;;16.92;87.44;98493.81;5072786;28;20196;-59
2023/10/28 04:07:07;;;;;;;10.87;7.90;;;;;;;16.90;87.57;98499.44;5072628;28;20308;-60
2023/10/28 04:09:35;;;;;;;12.60;7.93;;;;;;;16.92;87.01;98515.25;5072211;28;20613;-61
2023/10/28 04:12:01;;;;;;;14.67;8.80;;;;;;;16.97;87.69;98510.75;5072337;28;20198;-60
2023/10/28 04:14:29;;;;;;;11.10;7.93;;;;;;;17.01;87.30;98508.31;5072303;28;20187;-59
2023/10/28 04:16:56;;;;;;;13.67;8.03;;;;;;;16.99;86.91;98505.91;5072387;28;20261;-60
2023/10/28 04:19:23;;;;;;;14.63;8.63;;;;;;;16.97;87.88;98508.06;5071419;28;20192;-59
2023/10/28 04:21:50;;;;;;;17.23;9.37;;;;;;;17.01;87.81;98519.06;5072352;28;20193;-59
2023/10/28 04:24:18;;;;;;;17.87;8.43;;;;;;;16.95;86.58;98525.47;5071940;28;20212;-61
2023/10/28 04:26:45;;;;;;;19.53;11.17;;;;;;;16.80;87.60;98528.06;5071994;28;21263;-59
2023/10/28 04:29:12;;;;;;;12.10;8.27;;;;;;;16.77;88.66;98545.50;5072269;28;20323;-59
2023/10/28 04:31:40;;;;;;;18.87;9.83;;;;;;;16.83;88.74;98541.78;5071881;28;20196;-60
2023/10/28 04:34:06;;;;;;;11.80;8.43;;;;;;;16.89;88.27;98546.09;5071639;28;20199;-59
2023/10/28 04:36:33;;;;;;;8.17;7.33;;;;;;;16.88;86.99;98538.31;5072146;28;20187;-59
2023/10/28 04:39:01;;;;;;;18.23;8.70;;;;;;;16.96;88.10;98537.81;5071838;28;20238;-59
2023/10/28 04:41:28;;;;;;;11.00;7.23;;;;;;;17.05;88.13;98537.06;5071991;28;20571;-58
2023/10/28 04:43:55;;;;;;;10.80;8.33;;;;;;;17.10;86.89;98539.78;5071804;28;20200;-59
2023/10/28 04:46:21;;;;;;;17.47;8.53;;;;;;;17.15;86.85;98547.84;5071647;28;20192;-59
2023/10/28 04:48:50;;;;;;;15.47;7.93;;;;;;;17.17;86.46;98551.09;5071536;28;20273;-59
2023/10/28 04:51:17;;;;;;;10.03;7.27;;;;;;;17.19;86.69;98553.53;5071875;28;20187;-59
2023/10/28 04:53:45;;;;;;;13.13;7.07;;;;;;;17.23;86.35;98554.63;5071784;28;20280;-59
2023/10/28 04:56:11;;;;;;;11.87;7.93;;;;;;;17.28;86.02;98551.94;5071693;28;20199;-60
2023/10/28 04:58:39;;;;;;;14.93;7.67;;;;;;;17.29;85.04;98559.75;5071303;28;20199;-59
2023/10/28 05:01:05;;;;;;;17.87;8.93;;;;;;;17.32;85.34;98575.31;5071424;28;20196;-59
2023/10/28 05:03:32;;;;;;;19.13;9.40;;;;;;;17.36;85.29;98575.59;5071549;28;20274;-61
2023/10/28 05:06:00;;;;;;;18.37;8.83;;;;;;;17.33;84.58;98576.13;5071858;28;20262;-60
2023/10/28 05:08:28;;;;;;;16.47;8.40;;;;;;;17.37;85.96;98583.41;5071095;28;20781;-60
2023/10/28 05:10:55;;;;;;;13.90;9.10;;;;;;;17.34;84.75;98599.19;5070728;28;20284;-60
2023/10/28 05:13:21;;;;;;;19.13;9.00;;;;;;;17.28;85.62;98595.72;5071364;28;20198;-59
2023/10/28 05:15:48;;;;;;;14.20;8.37;;;;;;;17.19;85.35;98593.78;5071149;28;20190;-59
2023/10/28 05:18:15;;;;;;;17.73;8.47;;;;;;;17.16;86.29;98596.97;5071589;28;20329;-59
2023/10/28 05:20:43;;;;;;;11.10;7.77;;;;;;;17.38;88.04;98594.94;5070962;28;20578;-61
2023/10/28 05:23:13;;;;;;;39.30;16.20;;;;;;;17.95;85.43;98617.22;5071008;28;20200;-62
2023/10/28 05:25:39;;;;;;;10.37;8.10;;;;;;;18.39;80.54;98621.09;5071045;28;20192;-62
2023/10/28 05:28:06;;;;;;;21.27;8.80;;;;;;;18.77;79.97;98625.97;5070849;28;20268;-61
2023/10/28 05:30:33;;;;;;;22.50;8.20;;;;;;;19.09;79.31;98629.16;5070770;28;20198;-61
2023/10/28 05:33:00;;;;;;;15.50;7.77;;;;;;;19.48;77.98;98638.28;5071211;28;20239;-60
2023/10/28 05:35:27;;;;;;;10.40;7.23;;;;;;;19.97;76.13;98645.34;5071063;28;20635;-60
2023/10/28 05:37:54;;;;;;;20.13;8.17;;;;;;;20.32;74.75;98644.38;5070839;28;20207;-61
2023/10/28 05:40:22;;;;;;;13.13;7.47;;;;;;;20.72;72.24;98644.13;5071036;28;20196;-60
2023/10/28 05:42:49;;;;;;;14.63;8.33;;;;;;;21.06;70.80;98658.44;5070582;28;20709;-61
2023/10/28 05:45:16;;;;;;;28.80;8.87;;;;;;;21.30;68.98;98667.41;5070869;28;20261;-61
2023/10/28 05:47:42;;;;;;;15.57;8.13;;;;;;;21.33;69.96;98677.63;5071122;28;20232;-62
2023/10/28 05:50:10;;;;;;;13.17;7.50;;;;;;;21.58;68.80;98669.28;5071090;28;20192;-60
2023/10/28 05:52:38;;;;;;;15.53;7.90;;;;;;;21.86;67.83;98684.66;5071140;28;20573;-59
2023/10/28 05:55:05;;;;;;;15.43;8.90;;;;;;;22.03;64.89;98697.72;5071031;28;20260;-59
2023/10/28 05:57:33;;;;;;;16.67;9.93;;;;;;;21.88;65.40;98700.63;5070898;28;20200;-59
2023/10/28 06:00:00;;;;;;;22.00;10.77;;;;;;;21.91;66.38;98698.13;5070773;28;20192;-60
2023/10/28 06:02:26;;;;;;;27.40;9.10;;;;;;;21.95;65.96;98701.88;5070788;28;20188;-63
2023/10/28 06:04:53;;;;;;;22.47;9.90;;;;;;;21.57;66.75;98702.81;5070846;28;20200;-65
2023/10/28 06:07:20;;;;;;;20.80;9.83;;;;;;;21.24;67.17;98710.94;5070917;28;20192;-65
2023/10/28 06:09:47;;;;;;;14.67;10.10;;;;;;;21.06;68.42;98709.75;5070926;28;20194;-63
2023/10/28 06:12:14;;;;;;;20.73;10.00;;;;;;;21.14;69.00;98706.44;5070938;28;20298;-63
2023/10/28 06:14:43;;;;;;;17.87;9.30;;;;;;;21.47;68.96;98702.88;5070772;28;20306;-64
2023/10/28 06:17:10;;;;;;;20.00;10.40;;;;;;;21.55;66.31;98710.38;5070697;28;20192;-63
2023/10/28 06:19:37;;;;;;;20.63;11.10;;;;;;;21.55;65.75;98723.09;5070526;28;20612;-64
2023/10/28 06:22:04;;;;;;;17.60;10.40;;;;;;;21.65;66.52;98723.81;5070634;28;20196;-64
2023/10/28 06:24:31;;;;;;;28.83;10.77;;;;;;;21.56;65.92;98722.78;5070603;28;20192;-63
2023/10/28 06:26:59;;;;;;;18.03;9.67;;;;;;;21.66;67.77;98720.00;5070797;28;20573;-64
2023/10/28 06:29:25;;;;;;;14.80;9.07;;;;;;;22.16;65.65;98724.06;5070614;28;20247;-62
2023/10/28 06:31:53;;;;;;;15.03;9.43;;;;;;;22.65;63.19;98730.75;5070506;28;20246;-60
2023/10/28 06:34:20;;;;;;;19.53;9.90;;;;;;;22.99;62.40;98742.13;5070959;28;20200;-60
2023/10/28 06:36:47;;;;;;;16.17;9.03;;;;;;;23.26;61.48;98750.41;5070596;28;20192;-61
2023/10/28 06:39:16;;;;;;;14.20;9.10;;;;;;;23.52;60.68;98767.88;5070707;28;20265;-62
2023/10/28 06:41:43;;;;;;;19.13;9.47;;;;;;;23.76;59.56;98771.25;5070962;28;20289;-65
2023/10/28 06:44:09;;;;;;;23.67;9.87;;;;;;;23.82;59.13;98777.38;5074056;28;20193;-60
2023/10/28 06:46:36;;;;;;;23.30;10.07;;;;;;;23.90;58.69;98785.66;5074172;28;20197;-61
2023/10/28 06:49:08;;;;;;;11.83;8.10;;;;;;;24.01;59.68;98784.38;5073663;28;20779;-60
2023/10/28 06:51:34;;;;;;;20.97;8.70;;;;;;;24.17;58.48;98782.97;5074046;28;20275;-60
2023/10/28 06:54:02;;;;;;;17.97;8.57;;;;;;;24.16;57.25;98792.22;5073875;28;20622;-61
2023/10/28 06:56:28;;;;;;;21.00;8.20;;;;;;;24.01;58.74;98789.00;5073759;28;20692;-60
2023/10/28 06:58:55;;;;;;;20.83;8.23;;;;;;;24.08;57.41;98784.78;5073671;28;20558;-61
2023/10/28 07:01:22;;;;;;;15.33;8.03;;;;;;;23.95;58.59;98780.16;5072954;28;20229;-60
2023/10/28 07:03:49;;;;;;;19.47;8.17;;;;;;;23.97;57.66;98788.00;5072875;28;20197;-62
2023/10/28 07:06:18;;;;;;;13.83;7.83;;;;;;;23.99;56.96;98786.59;5072827;28;20199;-61
2023/10/28 07:08:50;;;;;;;14.97;8.43;;;;;;;23.66;58.16;98755.16;5073544;28;20568;-60
2023/10/28 07:11:21;;;;;;;25.13;8.87;;;;;;;24.00;57.57;98787.38;5073927;28;20201;-61
2023/10/28 07:13:48;;;;;;;14.90;8.70;;;;;;;23.99;58.56;98796.63;5073463;28;20552;-60
2023/10/28 07:16:17;;;;;;;16.23;7.70;;;;;;;23.92;58.80;98791.59;5073702;28;20202;-60
2023/10/28 07:18:44;;;;;;;13.50;8.20;;;;;;;24.16;58.32;98803.09;5074117;28;20224;-60
2023/10/28 07:21:11;;;;;;;13.57;7.63;;;;;;;24.54;57.62;98796.34;5072898;28;20203;-61
2023/10/28 07:23:39;;;;;;;16.73;9.80;;;;;;;24.96;55.23;98803.34;5073348;28;20715;-61
2023/10/28 07:26:06;;;;;;;11.53;8.70;;;;;;;25.36;53.83;98799.72;5073005;28;20689;-62
2023/10/28 07:28:33;;;;;;;27.73;9.30;;;;;;;25.35;53.40;98803.53;5072572;28;20228;-60
2023/10/28 07:31:01;;;;;;;16.40;8.87;;;;;;;25.23;53.84;98799.75;5073397;28;20317;-61
2023/10/28 07:33:28;;;;;;;17.83;8.40;;;;;;;25.08;55.18;98797.38;5072795;28;20191;-59
2023/10/28 07:36:01;;;;;;;12.60;8.17;;;;;;;25.10;55.15;98798.66;5072854;28;20593;-61
2023/10/28 07:38:28;;;;;;;14.80;9.27;;;;;;;25.23;53.81;98786.94;5073194;28;20662;-59
2023/10/28 07:40:57;;;;;;;12.17;8.27;;;;;;;25.30;54.15;98790.06;5072994;28;20697;-60
2023/10/28 07:43:24;;;;;;;9.10;8.13;;;;;;;25.63;52.98;98787.91;5072927;28;20627;-61
2023/10/28 07:45:50;;;;;;;18.33;8.30;;;;;;;26.04;51.56;98797.44;5073084;28;20192;-61
2023/10/28 07:48:17;;;;;;;16.63;8.60;;;;;;;26.41;50.35;98804.34;5072746;28;20219;-60
2023/10/28 07:50:44;;;;;;;33.23;9.00;;;;;;;26.65;49.71;98799.28;5073053;28;20642;-60
2023/10/28 07:53:11;;;;;;;14.07;8.60;;;;;;;26.85;49.39;98798.69;5072837;28;20191;-61
2023/10/28 07:55:39;;;;;;;12.53;8.50;;;;;;;27.14;48.49;98801.59;5072692;28;20223;-60
2023/10/28 07:58:07;;;;;;;16.63;8.90;;;;;;;27.36;47.71;98810.47;5072637;28;20200;-60
2023/10/28 08:00:38;;;;;;;14.80;8.63;;;;;;;27.58;46.91;98823.94;5072514;28;20200;-62
2023/10/28 08:03:05;;;;;;;18.70;8.63;;;;;;;27.63;46.67;98820.22;5072512;28;20294;-61
2023/10/28 08:05:32;;;;;;;14.13;8.37;;;;;;;27.82;46.35;98823.44;5073051;28;20246;-61
2023/10/28 08:07:59;;;;;;;16.67;9.50;;;;;;;27.92;45.80;98823.09;5072651;28;20296;-61
2023/10/28 08:10:26;;;;;;;11.23;9.20;;;;;;;27.82;45.77;98829.72;5072301;28;20738;-60
2023/10/28 08:12:53;;;;;;;21.10;9.13;;;;;;;27.15;47.72;98820.38;5072361;28;20663;-60
2023/10/28 08:15:22;;;;;;;18.37;9.00;;;;;;;27.32;48.08;98819.63;5072233;28;20187;-61
2023/10/28 08:17:50;;;;;;;21.93;9.53;;;;;;;27.68;46.69;98822.81;5072265;28;20665;-59
2023/10/28 08:20:17;;;;;;;11.03;8.23;;;;;;;27.95;46.30;98820.53;5072448;28;20192;-59
2023/10/28 08:22:44;;;;;;;19.73;9.17;;;;;;;28.22;45.30;98819.31;5072084;28;20299;-59
2023/10/28 08:25:15;;;;;;;20.67;9.37;;;;;;;28.42;44.42;98818.63;5072205;28;20196;-61
2023/10/28 08:27:42;;;;;;;17.90;7.77;;;;;;;28.69;44.02;98826.34;5072234;28;20223;-60
2023/10/28 08:30:09;;;;;;;19.70;8.40;;;;;;;28.88;43.57;98824.00;5071824;28;20219;-60
2023/10/28 08:32:38;;;;;;;15.10;8.53;;;;;;;28.98;41.91;98840.00;5071898;28;20218;-60
2023/10/28 08:35:05;;;;;;;9.20;7.70;;;;;;;29.11;42.45;98833.50;5072188;28;20210;-62
2023/10/28 08:37:32;;;;;;;11.73;7.00;;;;;;;29.19;42.55;98835.38;5072159;28;20196;-60
2023/10/28 08:40:00;;;;;;;11.27;7.30;;;;;;;29.46;41.27;98832.13;5072172;28;20289;-60
2023/10/28 08:42:26;;;;;;;12.83;7.83;;;;;;;29.78;40.76;98836.84;5071870;28;20192;-59
2023/10/28 08:44:54;;;;;;;11.10;7.93;;;;;;;29.72;39.76;98840.91;5071809;28;20933;-61
2023/10/28 08:47:23;;;;;;;12.43;8.10;;;;;;;29.76;40.17;98839.09;5071691;28;20192;-60
2023/10/28 08:49:53;;;;;;;12.67;7.40;;;;;;;29.94;40.06;98840.56;5071867;28;20224;-60
2023/10/28 08:52:23;;;;;;;16.93;8.53;;;;;;;29.60;40.07;98835.38;5071727;28;20250;-60
2023/10/28 08:54:50;;;;;;;12.43;8.30;;;;;;;29.69;40.58;98833.41;5072030;28;20196;-60
2023/10/28 08:57:18;;;;;;;15.97;8.47;;;;;;;29.61;40.54;98834.28;5071662;28;20193;-60
2023/10/28 08:59:45;;;;;;;9.63;7.60;;;;;;;29.68;40.99;98831.00;5071638;28;20200;-60
2023/10/28 09:02:13;;;;;;;11.00;7.73;;;;;;;29.77;40.32;98832.50;5071185;28;20667;-60
2023/10/28 09:04:40;;;;;;;23.37;9.03;;;;;;;29.87;39.62;98832.06;5071069;28;20188;-59
2023/10/28 09:07:08;;;;;;;13.53;8.10;;;;;;;30.00;40.23;98830.97;5071566;28;20196;-59
2023/10/28 09:09:37;;;;;;;15.27;7.57;;;;;;;30.17;38.97;98822.59;5071518;28;20292;-60
2023/10/28 09:12:07;;;;;;;12.27;7.67;;;;;;;29.91;38.91;98819.31;5070987;28;20188;-59
2023/10/28 09:14:33;;;;;;;12.10;6.37;;;;;;;30.00;39.26;98811.78;5071209;28;20640;-59
2023/10/28 09:17:02;;;;;;;12.70;7.27;;;;;;;30.10;39.46;98814.09;5071061;28;20642;-59
2023/10/28 09:19:30;;;;;;;11.33;7.27;;;;;;;30.16;39.46;98811.97;5071477;28;20287;-59
2023/10/28 09:21:58;;;;;;;11.43;7.47;;;;;;;30.27;39.09;98813.94;5070949;28;20208;-59
2023/10/28 09:24:26;;;;;;;20.33;8.03;;;;;;;30.32;38.85;98808.22;5071402;28;20295;-61
2023/10/28 09:26:53;;;;;;;16.70;7.20;;;;;;;30.33;38.74;98787.88;5070961;28;20234;-59
2023/10/28 09:29:25;;;;;;;12.90;6.97;;;;;;;30.62;38.17;98803.31;5071157;28;20208;-61
2023/10/28 09:31:52;;;;;;;12.77;6.83;;;;;;;30.57;37.69;98798.03;5071241;28;20579;-59
2023/10/28 09:34:19;;;;;;;11.37;7.20;;;;;;;30.60;38.20;98792.69;5070936;28;20191;-59
2023/10/28 09:36:46;;;;;;;13.67;7.77;;;;;;;30.54;38.21;98785.81;5071180;28;20192;-59
2023/10/28 09:39:14;;;;;;;13.00;8.10;;;;;;;30.52;38.29;98785.38;5071049;28;20226;-59
2023/10/28 09:41:42;;;;;;;18.13;8.57;;;;;;;30.45;38.61;98801.59;5071084;28;20582;-60
2023/10/28 09:44:11;;;;;;;23.20;9.27;;;;;;;30.39;38.56;98792.03;5070594;28;20671;-59
2023/10/28 09:46:39;;;;;;;20.53;8.97;;;;;;;30.46;38.51;98786.75;5070611;28;20192;-61
2023/10/28 09:49:09;;;;;;;13.20;8.90;;;;;;;30.51;38.26;98793.94;5070416;28;20690;-59
2023/10/28 09:51:40;;;;;;;18.10;9.27;;;;;;;30.60;38.24;98791.88;5070432;28;20192;-60
2023/10/28 09:54:11;;;;;;;15.47;8.83;;;;;;;30.56;38.04;98794.53;5070620;28;20697;-59
2023/10/28 09:56:43;;;;;;;18.87;9.27;;;;;;;30.33;38.96;98782.41;5070918;28;20261;-60
2023/10/28 09:59:18;;;;;;;14.70;8.30;;;;;;;30.36;39.12;98773.50;5070828;28;20188;-60
2023/10/28 10:01:55;;;;;;;11.67;8.57;;;;;;;30.38;38.07;98784.91;5071130;28;20184;-60
2023/10/28 10:04:31;;;;;;;13.23;8.63;;;;;;;30.41;38.86;98781.50;5070770;28;20214;-59
2023/10/28 10:06:58;;;;;;;13.63;8.03;;;;;;;30.58;38.70;98777.72;5071003;28;20230;-60
2023/10/28 10:09:25;;;;;;;12.50;7.90;;;;;;;30.68;38.51;98774.50;5070488;28;20223;-59
2023/10/28 10:11:52;;;;;;;15.90;7.67;;;;;;;30.69;38.15;98774.19;5070543;28;20195;-60
2023/10/28 10:14:22;;;;;;;10.73;8.07;;;;;;;30.64;38.25;98766.19;5071065;28;20192;-59
2023/10/28 10:16:56;;;;;;;10.43;7.73;;;;;;;30.68;38.19;98764.34;5071295;28;20188;-59
2023/10/28 10:19:29;;;;;;;12.07;7.07;;;;;;;30.80;37.81;98749.84;5074479;28;20188;-59
2023/10/28 10:21:57;;;;;;;9.13;5.70;;;;;;;30.85;37.16;98750.41;5074367;28;20234;-61
2023/10/28 10:24:24;;;;;;;8.53;5.60;;;;;;;30.88;37.24;98744.25;5074412;28;20207;-61
2023/10/28 10:26:54;;;;;;;9.77;5.97;;;;;;;30.86;37.75;98749.25;5073949;28;20232;-61
2023/10/28 10:29:23;;;;;;;10.33;5.70;;;;;;;30.97;37.60;98746.81;5074624;28;20224;-62
2023/10/28 10:31:52;;;;;;;5.73;5.27;;;;;;;31.07;37.07;98752.63;5073836;28;20685;-60
2023/10/28 10:34:33;;;;;;;6.20;5.60;;;;;;;31.12;36.84;98746.91;5074305;28;20275;-60
2023/10/28 10:37:01;;;;;;;7.03;4.93;;;;;;;30.89;37.48;98736.78;5074092;28;20184;-60
2023/10/28 10:39:27;;;;;;;8.90;5.60;;;;;;;30.35;38.58;98736.28;5074290;28;20227;-60
2023/10/28 10:41:55;;;;;;;6.40;4.40;;;;;;;30.27;38.60;98737.19;5073826;28;20279;-61
2023/10/28 10:44:33;;;;;;;9.10;4.13;;;;;;;30.39;38.09;98737.19;5073790;28;20223;-60
2023/10/28 10:47:01;;;;;;;9.03;3.80;;;;;;;30.25;38.54;98723.03;5073883;28;20220;-60
2023/10/28 10:49:30;;;;;;;10.63;3.70;;;;;;;30.03;38.32;98726.19;5073612;28;20292;-62
2023/10/28 10:51:59;;;;;;;7.93;3.90;;;;;;;29.99;37.96;98722.53;5073593;28;20595;-60
2023/10/28 10:54:30;;;;;;;7.47;4.27;;;;;;;30.06;38.47;98714.56;5074087;28;20200;-60
2023/10/28 10:56:57;;;;;;;5.07;3.87;;;;;;;30.09;37.80;98718.56;5073809;28;20275;-61
2023/10/28 10:59:28;;;;;;;12.23;4.17;;;;;;;30.13;38.68;98712.03;5073663;28;20196;-61
2023/10/28 11:01:55;;;;;;;12.03;6.13;;;;;;;30.18;38.03;98719.25;5073843;28;20207;-62
2023/10/28 11:04:23;;;;;;;9.43;8.10;;;;;;;30.02;38.38;98721.88;5073874;28;20192;-60
2023/10/28 11:06:51;;;;;;;12.43;9.20;;;;;;;29.99;37.95;98719.78;5073769;28;20200;-61
2023/10/28 11:09:19;;;;;;;12.53;9.87;;;;;;;29.93;38.35;98726.63;5073431;28;20645;-61
2023/10/28 11:11:45;;;;;;;13.27;10.23;;;;;;;29.96;38.97;98717.72;5073709;28;20199;-60
2023/10/28 11:14:12;;;;;;;19.90;12.63;;;;;;;29.95;38.87;98713.41;5073153;28;20565;-60
2023/10/28 11:16:41;;;;;;;15.20;13.60;;;;;;;30.00;38.17;98712.38;5073669;28;20223;-60
2023/10/28 11:19:10;;;;;;;17.57;12.90;;;;;;;30.04;37.96;98710.56;5072962;28;20200;-59
2023/10/28 11:21:37;;;;;;;14.13;12.80;;;;;;;30.06;37.34;98709.09;5072860;28;20196;-60
2023/10/28 11:24:07;;;;;;;18.87;14.07;;;;;;;30.09;37.55;98716.59;5073142;28;20192;-60
2023/10/28 11:26:35;;;;;;;25.23;14.77;;;;;;;30.01;37.95;98714.75;5072804;28;20657;-60
2023/10/28 11:29:04;;;;;;;18.17;14.47;;;;;;;29.94;38.30;98706.34;5072744;28;20212;-59